createdAt,value
2024-03-16T00:03:00.991Z,96076.00
2024-03-16T00:07:04.895Z,96077.00
2024-03-16T00:11:08.156Z,96071.00
2024-03-16T00:15:11.564Z,96071.00
2024-03-16T00:19:14.851Z,96071.00
2024-03-16T00:23:18.717Z,96079.00
2024-03-16T00:27:21.877Z,96076.00
2024-03-16T00:31:24.984Z,96061.00
2024-03-16T00:35:28.085Z,96075.00
2024-03-16T00:39:31.206Z,96073.00
2024-03-16T00:43:34.355Z,96075.00
2024-03-16T00:47:37.738Z,96078.00
2024-03-16T00:51:42.413Z,96079.00
2024-03-16T00:55:45.959Z,96084.00
2024-03-16T00:59:49.066Z,96084.00
2024-03-16T01:03:52.382Z,96071.00
2024-03-16T01:07:55.675Z,96074.00
2024-03-16T01:11:58.736Z,96067.00
2024-03-16T01:16:02.925Z,96073.00
2024-03-16T01:20:07.039Z,96070.00
2024-03-16T01:24:10.174Z,96069.00
2024-03-16T01:28:13.755Z,96066.00
2024-03-16T01:32:17.051Z,96060.00
2024-03-16T01:36:20.430Z,96069.00
2024-03-16T01:40:26.813Z,96085.00
2024-03-16T01:44:30.727Z,96079.00
2024-03-16T01:48:34.239Z,96079.00
2024-03-16T01:52:37.414Z,96080.00
2024-03-16T01:56:40.482Z,96093.00
2024-03-16T02:00:48.862Z,96094.00
2024-03-16T02:04:52.414Z,96092.00
2024-03-16T02:08:55.661Z,96084.00
2024-03-16T02:12:58.851Z,96095.00
2024-03-16T02:17:01.933Z,96098.00
2024-03-16T02:21:05.964Z,96107.00
2024-03-16T02:25:09.836Z,96096.00
2024-03-16T02:29:13.311Z,96099.00
2024-03-16T02:33:16.871Z,96104.00
2024-03-16T02:37:20.381Z,96111.00
2024-03-16T02:41:23.584Z,96113.00
2024-03-16T02:45:26.752Z,96124.00
2024-03-16T02:49:30.058Z,96119.00
2024-03-16T02:53:33.225Z,96124.00
2024-03-16T02:57:36.352Z,96117.00
